N979RC KSEZ-KSEZ

Flight info

Callsign N979RC
Flight time N/A
Altitude 13000
Route LOCAL VFR
Aircraft BE36/L-VGD/C

Departure

Time 2026-04-26 22:15
Airport Sedona Airport (KSEZ)

Arrival

Time N/A
Airport Sedona Airport (KSEZ)
Time Latitude Longitude Altitude Speed Heading
2026-04-26 22:09 34.85121 -111.78677 4806 ft 0 kts 317°
2026-04-26 22:13 34.85343 -111.78242 4832 ft 0 kts 226°
2026-04-26 22:14 34.85190 -111.78436 4820 ft 65 kts 226°
2026-04-26 22:14 34.84783 -111.78938 4901 ft 91 kts 223°
2026-04-26 22:15 34.84359 -111.79500 5278 ft 91 kts 223°
2026-04-26 22:15 34.83959 -111.80141 5623 ft 98 kts 228°
2026-04-26 22:15 34.83502 -111.80776 5928 ft 101 kts 225°
2026-04-26 22:15 34.83251 -111.81555 6186 ft 110 kts 270°
2026-04-26 22:16 34.83543 -111.82405 6436 ft 106 kts 278°
2026-04-26 22:16 34.83830 -111.83200 6669 ft 101 kts 278°
2026-04-26 22:16 34.84126 -111.83974 6900 ft 101 kts 278°
2026-04-26 22:16 34.84399 -111.84797 6993 ft 116 kts 277°
2026-04-26 22:17 34.84707 -111.85767 7005 ft 128 kts 281°
2026-04-26 22:17 34.84775 -111.86818 7030 ft 126 kts 252°
2026-04-26 22:17 34.84584 -111.87891 7058 ft 132 kts 252°
2026-04-26 22:17 34.84396 -111.88996 7074 ft 135 kts 251°
2026-04-26 22:18 34.84195 -111.90132 7073 ft 139 kts 250°
2026-04-26 22:18 34.83987 -111.91292 7081 ft 142 kts 252°
2026-04-26 22:18 34.83795 -111.92462 7086 ft 137 kts 252°
2026-04-26 22:18 34.83631 -111.93554 7073 ft 125 kts 252°
2026-04-26 22:19 34.83470 -111.94575 6940 ft 125 kts 251°
2026-04-26 22:19 34.83301 -111.95635 6699 ft 133 kts 252°
2026-04-26 22:19 34.83107 -111.96753 6462 ft 136 kts 251°
2026-04-26 22:19 34.82926 -111.97887 6222 ft 137 kts 252°
2026-04-26 22:20 34.82732 -111.99036 5977 ft 141 kts 251°
2026-04-26 22:20 34.82595 -111.99814 5908 ft 140 kts 252°
2026-04-26 22:20 34.82354 -112.01302 5895 ft 130 kts 251°
2026-04-26 22:20 34.82170 -112.02406 5713 ft 139 kts 246°
2026-04-26 22:21 34.81669 -112.03256 5629 ft 147 kts 222°